createdAt,value
2018-03-21T00:01:33.721Z,1.77
2018-03-21T00:04:01.220Z,1.90
2018-03-21T00:06:28.720Z,1.70
2018-03-21T00:08:56.227Z,1.70
2018-03-21T00:11:23.720Z,2.10
2018-03-21T00:13:51.201Z,1.63
2018-03-21T00:16:18.718Z,1.40
2018-03-21T00:18:46.212Z,1.53
2018-03-21T00:21:14.472Z,1.40
2018-03-21T00:23:41.955Z,1.67
2018-03-21T00:26:10.266Z,2.00
2018-03-21T00:28:37.755Z,1.53
2018-03-21T00:31:05.386Z,1.63
2018-03-21T00:33:32.884Z,1.60
2018-03-21T00:36:00.366Z,1.50
2018-03-21T00:38:28.632Z,1.90
2018-03-21T00:40:56.879Z,1.60
2018-03-21T00:43:24.419Z,1.90
2018-03-21T00:45:51.906Z,2.00
2018-03-21T00:48:19.383Z,1.67
2018-03-21T00:50:47.668Z,1.83
2018-03-21T00:53:15.159Z,1.60
2018-03-21T00:55:42.655Z,2.30
2018-03-21T00:58:10.148Z,2.03
2018-03-21T01:00:37.760Z,1.77
2018-03-21T01:03:05.239Z,2.10
2018-03-21T01:05:33.492Z,2.23
2018-03-21T01:08:00.991Z,2.30
2018-03-21T01:10:28.475Z,2.33
2018-03-21T01:12:55.979Z,1.70
2018-03-21T01:15:24.230Z,2.10
2018-03-21T01:17:52.514Z,1.70
2018-03-21T01:20:19.982Z,1.77
2018-03-21T01:22:48.219Z,2.00
2018-03-21T01:25:15.727Z,1.97
2018-03-21T01:27:43.231Z,1.60
2018-03-21T01:30:10.741Z,1.67
2018-03-21T01:32:38.231Z,1.70
2018-03-21T01:35:05.745Z,1.87
2018-03-21T01:37:33.235Z,1.87
2018-03-21T01:40:00.720Z,1.87
2018-03-21T01:42:28.227Z,1.97
2018-03-21T01:44:55.715Z,1.57
2018-03-21T01:47:23.206Z,1.77
2018-03-21T01:49:50.691Z,1.57
2018-03-21T01:52:18.951Z,1.93
2018-03-21T01:54:47.195Z,2.10
2018-03-21T01:57:14.693Z,1.90
2018-03-21T01:59:42.951Z,1.93
2018-03-21T02:02:11.195Z,2.20
2018-03-21T02:04:38.691Z,1.93
2018-03-21T02:07:06.931Z,2.07
2018-03-21T02:09:34.408Z,2.67
2018-03-21T02:12:02.672Z,2.20
2018-03-21T02:14:30.167Z,2.90
2018-03-21T02:16:57.648Z,2.40
2018-03-21T02:19:25.135Z,2.30
2018-03-21T02:21:52.636Z,2.60
2018-03-21T02:24:20.125Z,2.40
2018-03-21T02:26:47.631Z,2.30
2018-03-21T02:29:15.884Z,2.53
2018-03-21T02:31:43.373Z,2.40
2018-03-21T02:34:10.877Z,2.50
2018-03-21T02:36:38.379Z,2.30
2018-03-21T02:39:05.895Z,2.47
2018-03-21T02:41:33.381Z,2.30
2018-03-21T02:44:01.640Z,2.10
2018-03-21T02:46:29.153Z,2.45
2018-03-21T02:48:56.636Z,2.83
2018-03-21T02:51:24.165Z,2.80
2018-03-21T02:53:51.647Z,3.25
2018-03-21T02:56:19.137Z,2.87
2018-03-21T02:58:47.416Z,2.83
2018-03-21T03:01:15.687Z,3.05
2018-03-21T03:03:43.955Z,2.50
2018-03-21T03:06:12.208Z,3.10
2018-03-21T03:08:39.688Z,2.80
2018-03-21T03:11:07.959Z,3.37
2018-03-21T03:13:36.219Z,3.22
2018-03-21T03:16:03.724Z,3.58
2018-03-21T03:18:31.215Z,3.20
2018-03-21T03:20:58.705Z,3.22
2018-03-21T03:23:26.973Z,3.40
2018-03-21T03:25:55.223Z,3.27
2018-03-21T03:28:22.735Z,3.37
2018-03-21T03:30:50.224Z,3.40
2018-03-21T03:33:17.762Z,3.13
2018-03-21T03:35:45.999Z,3.85
2018-03-21T03:38:14.244Z,3.43
2018-03-21T03:40:41.748Z,3.80
2018-03-21T03:43:09.235Z,3.80
2018-03-21T03:45:36.715Z,3.95
2018-03-21T03:48:04.215Z,3.47
2018-03-21T03:50:31.720Z,4.07
2018-03-21T03:52:59.235Z,3.50
2018-03-21T03:55:26.727Z,4.05
2018-03-21T03:57:54.212Z,4.50
2018-03-21T04:00:23.226Z,4.10
2018-03-21T04:02:51.481Z,3.97
2018-03-21T04:05:19.759Z,4.07
2018-03-21T04:07:48.024Z,4.50
2018-03-21T04:10:15.538Z,5.22
2018-03-21T04:12:43.047Z,4.37
2018-03-21T04:15:10.531Z,4.72
2018-03-21T04:17:38.043Z,4.75
2018-03-21T04:20:05.542Z,4.35
2018-03-21T04:22:33.028Z,5.35
2018-03-21T04:25:00.531Z,5.30
2018-03-21T04:27:28.017Z,5.45
2018-03-21T04:29:55.528Z,5.35
2018-03-21T04:32:23.020Z,6.85
2018-03-21T04:34:51.269Z,9.02
2018-03-21T04:37:18.835Z,8.95
2018-03-21T04:39:46.319Z,11.43
2018-03-21T04:42:13.854Z,11.33
2018-03-21T04:44:42.107Z,11.07
2018-03-21T04:47:10.649Z,9.47
2018-03-21T04:49:38.145Z,12.93
2018-03-21T04:52:05.627Z,12.07
2018-03-21T04:54:33.905Z,12.47
2018-03-21T04:57:02.163Z,12.13
2018-03-21T04:59:29.654Z,11.80
2018-03-21T05:01:57.175Z,12.23
2018-03-21T05:04:24.664Z,11.13
2018-03-21T05:06:52.197Z,11.00
2018-03-21T05:09:20.439Z,11.47
2018-03-21T05:11:47.935Z,10.40
2018-03-21T05:14:16.200Z,10.27
2018-03-21T05:16:44.456Z,9.63
2018-03-21T05:19:12.365Z,9.90
2018-03-21T05:21:39.864Z,10.20
2018-03-21T05:24:07.347Z,10.37
2018-03-21T05:26:35.620Z,10.77
2018-03-21T05:29:03.108Z,10.23
2018-03-21T05:31:30.592Z,9.33
2018-03-21T05:33:58.096Z,10.97
2018-03-21T05:36:26.347Z,10.07
2018-03-21T05:38:55.356Z,10.97
2018-03-21T05:41:22.856Z,12.10
2018-03-21T05:43:50.364Z,11.50
2018-03-21T05:46:17.852Z,10.57
2018-03-21T05:48:46.100Z,11.10
2018-03-21T05:51:14.475Z,12.50
2018-03-21T05:53:41.963Z,9.90
2018-03-21T05:56:09.468Z,11.03
2018-03-21T05:58:36.961Z,11.67
2018-03-21T06:01:05.212Z,12.73
2018-03-21T06:03:34.220Z,11.30
2018-03-21T06:06:02.477Z,12.10
2018-03-21T06:08:30.810Z,11.83
2018-03-21T06:10:58.336Z,12.63
2018-03-21T06:13:25.864Z,12.53
2018-03-21T06:15:54.160Z,12.93
2018-03-21T06:18:22.412Z,14.30
2018-03-21T06:20:49.924Z,14.40
2018-03-21T06:23:17.420Z,15.90
2018-03-21T06:25:44.903Z,13.67
2018-03-21T06:28:13.178Z,13.97
2018-03-21T06:30:41.494Z,15.27
2018-03-21T06:33:09.736Z,15.73
2018-03-21T06:35:37.987Z,18.13
2018-03-21T06:38:05.527Z,19.33
2018-03-21T06:40:33.756Z,21.17
2018-03-21T06:43:01.252Z,21.40
2018-03-21T06:45:28.755Z,23.77
2018-03-21T06:47:57.003Z,25.00
2018-03-21T06:50:24.499Z,24.40
2018-03-21T06:52:51.999Z,24.83
2018-03-21T06:55:19.483Z,23.80
2018-03-21T06:57:47.000Z,24.77
2018-03-21T07:00:14.480Z,21.67
2018-03-21T07:02:41.963Z,19.77
2018-03-21T07:05:10.228Z,16.87
2018-03-21T07:07:37.724Z,15.97
2018-03-21T07:10:05.235Z,15.97
2018-03-21T07:12:33.500Z,16.53
2018-03-21T07:15:13.484Z,21.80
2018-03-21T07:17:41.734Z,21.43
2018-03-21T07:20:09.991Z,19.77
2018-03-21T07:22:37.492Z,19.17
2018-03-21T07:25:04.976Z,17.40
2018-03-21T07:27:32.488Z,17.27
2018-03-21T07:29:59.987Z,16.47
2018-03-21T07:32:27.488Z,17.47
2018-03-21T07:34:55.051Z,15.73
2018-03-21T07:37:22.531Z,18.73
2018-03-21T07:39:50.050Z,20.53
2018-03-21T07:42:17.541Z,21.30
2018-03-21T07:44:45.025Z,21.53
2018-03-21T07:47:12.524Z,22.37
2018-03-21T07:49:40.024Z,23.83
2018-03-21T07:52:07.523Z,17.80
2018-03-21T07:54:35.017Z,19.73
2018-03-21T07:57:03.274Z,18.90
2018-03-21T07:59:30.779Z,20.73
2018-03-21T08:01:58.270Z,23.73
2018-03-21T08:04:25.800Z,21.47
2018-03-21T08:06:53.280Z,16.70
2018-03-21T08:09:20.759Z,15.53
2018-03-21T08:11:49.033Z,13.40
2018-03-21T08:14:16.532Z,14.10
2018-03-21T08:16:44.060Z,11.77
2018-03-21T08:19:12.307Z,12.67
2018-03-21T08:21:39.791Z,14.33
2018-03-21T08:24:08.071Z,14.37
2018-03-21T08:26:36.328Z,12.93
2018-03-21T08:29:04.606Z,12.93
2018-03-21T08:31:32.863Z,12.47
2018-03-21T08:34:00.344Z,13.43
2018-03-21T08:36:28.611Z,14.40
2018-03-21T08:38:56.865Z,13.50
2018-03-21T08:41:24.383Z,13.00
2018-03-21T08:43:51.871Z,13.20
2018-03-21T08:46:19.376Z,12.73
2018-03-21T08:48:46.872Z,15.93
2018-03-21T08:51:14.351Z,13.07
2018-03-21T08:53:41.851Z,14.33
2018-03-21T08:56:09.331Z,13.60
2018-03-21T08:58:36.827Z,12.80
2018-03-21T09:01:04.328Z,12.37
2018-03-21T09:03:31.808Z,9.97
2018-03-21T09:05:59.363Z,14.00
2018-03-21T09:08:26.862Z,12.20
2018-03-21T09:10:55.113Z,13.87
2018-03-21T09:13:22.619Z,13.27
2018-03-21T09:15:50.099Z,13.07
2018-03-21T09:18:17.655Z,13.93
2018-03-21T09:20:45.883Z,14.53
2018-03-21T09:23:14.140Z,15.43
2018-03-21T09:25:41.672Z,15.83
2018-03-21T09:28:09.170Z,19.77
2018-03-21T09:30:37.452Z,16.93
2018-03-21T09:33:05.702Z,17.13
2018-03-21T09:35:33.189Z,16.93
2018-03-21T09:38:00.876Z,17.67
2018-03-21T09:40:28.364Z,16.07
2018-03-21T09:42:56.172Z,16.97
2018-03-21T09:45:23.664Z,17.47
2018-03-21T09:47:51.151Z,15.83
2018-03-21T09:50:18.658Z,16.27
2018-03-21T09:52:46.165Z,14.53
2018-03-21T09:55:13.673Z,13.13
2018-03-21T09:57:41.165Z,12.47
2018-03-21T10:00:08.648Z,12.87
2018-03-21T10:02:36.918Z,13.17
2018-03-21T10:05:04.869Z,11.53
2018-03-21T10:07:33.883Z,11.37
2018-03-21T10:10:01.368Z,11.67
2018-03-21T10:12:28.848Z,11.20
2018-03-21T10:14:56.393Z,10.90
2018-03-21T10:17:23.875Z,13.23
2018-03-21T10:19:51.447Z,12.37
2018-03-21T10:22:18.902Z,12.33
2018-03-21T10:24:46.412Z,12.40
2018-03-21T10:27:13.912Z,11.10
2018-03-21T10:29:41.411Z,11.87
2018-03-21T10:32:09.678Z,10.60
2018-03-21T10:34:37.958Z,10.90
2018-03-21T10:37:05.424Z,10.93
2018-03-21T10:39:32.924Z,11.37
2018-03-21T10:42:00.400Z,11.20
2018-03-21T10:44:27.915Z,11.70
2018-03-21T10:46:55.388Z,11.40
2018-03-21T10:49:22.875Z,10.60
2018-03-21T10:51:50.374Z,11.87
2018-03-21T10:54:17.856Z,10.50
2018-03-21T10:56:45.332Z,12.83
2018-03-21T10:59:12.826Z,11.87
2018-03-21T11:01:41.071Z,11.90
2018-03-21T11:04:08.576Z,11.80
2018-03-21T11:06:36.833Z,11.63
2018-03-21T11:09:05.095Z,11.43
2018-03-21T11:11:32.618Z,10.63
2018-03-21T11:14:00.108Z,11.30
2018-03-21T11:16:27.587Z,11.20
2018-03-21T11:18:55.863Z,11.20
2018-03-21T11:21:23.348Z,12.50
2018-03-21T11:23:50.831Z,12.97
2018-03-21T11:26:18.635Z,12.50
2018-03-21T11:28:46.876Z,11.37
2018-03-21T11:31:14.355Z,12.33
2018-03-21T11:33:41.860Z,12.00
2018-03-21T11:36:09.532Z,11.33
2018-03-21T11:38:37.015Z,11.27
2018-03-21T11:41:04.523Z,10.70
2018-03-21T11:43:32.855Z,10.60
2018-03-21T11:46:00.267Z,9.27
2018-03-21T11:48:28.564Z,9.60
2018-03-21T11:50:56.036Z,9.67
2018-03-21T11:53:23.508Z,9.07
2018-03-21T11:55:51.007Z,10.47
2018-03-21T11:58:19.404Z,9.37
2018-03-21T12:00:47.644Z,9.33
2018-03-21T12:03:15.143Z,8.83
2018-03-21T12:05:43.383Z,7.03
2018-03-21T12:08:10.859Z,8.60
2018-03-21T12:10:39.130Z,7.70
2018-03-21T12:13:07.391Z,7.73
2018-03-21T12:15:34.887Z,7.87
2018-03-21T12:18:02.375Z,7.67
2018-03-21T12:20:29.859Z,8.13
2018-03-21T12:22:57.351Z,8.97
2018-03-21T12:25:25.604Z,8.43
2018-03-21T12:27:53.128Z,7.37
2018-03-21T12:30:20.600Z,7.53
2018-03-21T12:32:48.089Z,7.67
2018-03-21T12:35:16.352Z,7.63
2018-03-21T12:37:44.627Z,7.70
2018-03-21T12:40:12.168Z,7.07
2018-03-21T12:42:39.690Z,6.80
2018-03-21T12:45:07.163Z,7.60
2018-03-21T12:47:34.664Z,6.90
2018-03-21T12:50:02.935Z,7.33
2018-03-21T12:52:31.200Z,5.70
2018-03-21T12:54:58.673Z,6.93
2018-03-21T12:57:26.915Z,6.03
2018-03-21T12:59:54.407Z,6.87
2018-03-21T13:02:22.661Z,7.43
2018-03-21T13:04:50.156Z,6.27
2018-03-21T13:07:17.631Z,5.57
2018-03-21T13:09:45.103Z,5.57
2018-03-21T13:12:12.601Z,5.27
2018-03-21T13:14:40.856Z,5.67
2018-03-21T13:17:08.368Z,6.10
2018-03-21T13:19:35.847Z,6.17
2018-03-21T13:22:03.328Z,5.90
2018-03-21T13:24:30.824Z,5.43
2018-03-21T13:26:58.300Z,6.10
2018-03-21T13:29:25.816Z,7.47
2018-03-21T13:31:54.052Z,6.97
2018-03-21T13:34:21.544Z,6.80
2018-03-21T13:36:50.224Z,6.30
2018-03-21T13:39:18.491Z,5.90
2018-03-21T13:41:45.989Z,5.60
2018-03-21T13:44:13.476Z,6.03
2018-03-21T13:46:40.973Z,5.17
2018-03-21T13:49:09.232Z,5.27
2018-03-21T13:51:36.720Z,5.17
2018-03-21T13:54:04.232Z,5.87
2018-03-21T13:56:32.475Z,5.20
2018-03-21T13:58:59.961Z,5.70
2018-03-21T14:01:28.220Z,6.40
2018-03-21T14:03:55.712Z,5.73
2018-03-21T14:06:23.287Z,6.73
2018-03-21T14:08:50.763Z,5.57
2018-03-21T14:11:18.239Z,6.23
2018-03-21T14:13:45.746Z,6.27
2018-03-21T14:16:13.234Z,6.10
2018-03-21T14:18:40.735Z,5.77
2018-03-21T14:21:08.208Z,6.70
2018-03-21T14:23:35.722Z,6.60
2018-03-21T14:26:03.216Z,6.43
2018-03-21T14:28:30.736Z,8.13
2018-03-21T14:30:58.243Z,6.50
2018-03-21T14:33:25.717Z,7.53
2018-03-21T14:35:53.208Z,6.73
2018-03-21T14:38:20.697Z,6.53
2018-03-21T14:40:48.944Z,6.73
2018-03-21T14:43:16.439Z,6.80
2018-03-21T14:45:43.917Z,6.67
2018-03-21T14:48:11.391Z,6.53
2018-03-21T14:50:39.010Z,6.43
2018-03-21T14:53:06.495Z,6.80
2018-03-21T14:55:34.006Z,7.27
2018-03-21T14:58:02.252Z,6.80
2018-03-21T15:00:29.724Z,6.60
2018-03-21T15:02:57.216Z,6.40
2018-03-21T15:05:24.692Z,6.90
2018-03-21T15:07:52.195Z,6.70
2018-03-21T15:10:19.668Z,5.73
2018-03-21T15:12:47.915Z,6.77
2018-03-21T15:15:16.920Z,6.80
2018-03-21T15:17:45.171Z,6.10
2018-03-21T15:20:12.667Z,5.63
2018-03-21T15:22:40.907Z,5.93
2018-03-21T15:25:08.397Z,6.97
2018-03-21T15:27:35.892Z,6.57
2018-03-21T15:30:03.368Z,7.03
2018-03-21T15:32:30.864Z,6.83
2018-03-21T15:34:59.106Z,7.73
2018-03-21T15:37:26.577Z,7.20
2018-03-21T15:39:54.836Z,8.00
2018-03-21T15:42:22.311Z,7.30
2018-03-21T15:44:50.582Z,7.80
2018-03-21T15:47:18.057Z,7.50
2018-03-21T15:49:45.547Z,6.63
2018-03-21T15:52:13.045Z,8.03
2018-03-21T15:54:41.288Z,8.20
2018-03-21T15:57:08.792Z,7.83
2018-03-21T15:59:37.063Z,7.67
2018-03-21T16:02:05.306Z,8.10
2018-03-21T16:04:32.796Z,8.30
2018-03-21T16:07:01.053Z,8.23
2018-03-21T16:09:28.566Z,9.00
2018-03-21T16:11:56.038Z,7.80
2018-03-21T16:14:23.520Z,7.93
2018-03-21T16:16:51.030Z,7.63
2018-03-21T16:19:18.528Z,7.17
2018-03-21T16:21:46.039Z,7.87
2018-03-21T16:24:13.523Z,6.90
2018-03-21T16:26:40.996Z,7.40
2018-03-21T16:29:08.487Z,7.63
2018-03-21T16:31:35.973Z,7.57
2018-03-21T16:34:03.491Z,7.47
2018-03-21T16:36:30.975Z,6.73
2018-03-21T16:38:58.455Z,7.23
2018-03-21T16:41:25.951Z,6.60
2018-03-21T16:43:54.200Z,7.17
2018-03-21T16:46:21.704Z,6.37
2018-03-21T16:48:49.179Z,7.30
2018-03-21T16:51:16.651Z,6.67
2018-03-21T16:53:44.148Z,7.30
2018-03-21T16:56:12.419Z,6.60
2018-03-21T16:58:40.664Z,6.37
2018-03-21T17:01:08.140Z,5.93
2018-03-21T17:03:35.694Z,7.23
2018-03-21T17:06:03.160Z,6.83
2018-03-21T17:08:30.667Z,6.53
2018-03-21T17:10:58.154Z,6.00
2018-03-21T17:13:25.631Z,6.17
2018-03-21T17:15:53.128Z,6.10
2018-03-21T17:18:20.600Z,6.50
2018-03-21T17:20:48.111Z,6.90
2018-03-21T17:23:15.591Z,6.93
2018-03-21T17:25:43.241Z,6.50
2018-03-21T17:28:10.806Z,6.07
2018-03-21T17:30:38.307Z,5.57
2018-03-21T17:33:05.804Z,6.17
2018-03-21T17:35:34.083Z,6.30
2018-03-21T17:38:01.559Z,6.30
2018-03-21T17:40:29.041Z,6.47
2018-03-21T17:42:57.356Z,6.97
2018-03-21T17:45:24.881Z,6.53
2018-03-21T17:47:52.484Z,6.67
2018-03-21T17:50:20.012Z,7.20
2018-03-21T17:52:48.252Z,6.70
2018-03-21T17:55:16.045Z,6.57
2018-03-21T17:57:44.288Z,6.47
2018-03-21T18:00:11.768Z,6.73
2018-03-21T18:02:40.039Z,7.90
2018-03-21T18:05:07.519Z,6.70
2018-03-21T18:07:34.996Z,6.83
2018-03-21T18:10:02.492Z,6.43
2018-03-21T18:12:29.968Z,6.53
2018-03-21T18:14:58.215Z,6.53
2018-03-21T18:17:25.716Z,6.87
2018-03-21T18:19:53.956Z,6.47
2018-03-21T18:22:21.456Z,6.10
2018-03-21T18:24:48.943Z,6.30
2018-03-21T18:27:16.419Z,6.20
2018-03-21T18:29:43.934Z,6.53
2018-03-21T18:32:11.412Z,6.70
2018-03-21T18:34:38.890Z,6.23
2018-03-21T18:37:06.404Z,6.07
2018-03-21T18:39:33.875Z,6.50
2018-03-21T18:42:01.700Z,6.07
2018-03-21T18:44:30.035Z,5.93
2018-03-21T18:46:57.507Z,7.43
2018-03-21T18:49:25.945Z,6.80
2018-03-21T18:51:53.432Z,7.67
2018-03-21T18:54:20.932Z,9.83
2018-03-21T18:56:48.403Z,10.77
2018-03-21T18:59:16.652Z,7.90
2018-03-21T19:01:44.924Z,7.20
2018-03-21T19:04:12.407Z,6.90
2018-03-21T19:06:41.493Z,7.03
2018-03-21T19:09:09.054Z,7.23
2018-03-21T19:11:36.563Z,7.73
2018-03-21T19:14:04.087Z,7.90
2018-03-21T19:16:31.682Z,8.00
2018-03-21T19:18:59.413Z,7.63
2018-03-21T19:21:26.981Z,10.53
2018-03-21T19:23:54.533Z,8.40
2018-03-21T19:26:22.035Z,9.60
2018-03-21T19:28:49.511Z,8.57
2018-03-21T19:31:17.004Z,8.90
2018-03-21T19:33:44.477Z,8.70
2018-03-21T19:36:11.952Z,11.57
2018-03-21T19:38:39.485Z,11.77
2018-03-21T19:41:07.749Z,11.87
2018-03-21T19:43:35.294Z,12.20
2018-03-21T19:46:02.810Z,12.03
2018-03-21T19:48:30.342Z,16.73
2018-03-21T19:50:58.604Z,13.03
2018-03-21T19:53:26.080Z,8.90
2018-03-21T19:55:54.416Z,9.33
2018-03-21T19:58:21.912Z,12.40
2018-03-21T20:00:50.168Z,10.47
2018-03-21T20:03:17.695Z,12.57
2018-03-21T20:05:45.179Z,10.67
2018-03-21T20:08:12.701Z,10.80
2018-03-21T20:10:40.180Z,9.30
2018-03-21T20:13:08.422Z,9.73
2018-03-21T20:15:35.939Z,10.00
2018-03-21T20:18:04.184Z,10.10
2018-03-21T20:20:31.679Z,9.07
2018-03-21T20:22:59.924Z,8.00
2018-03-21T20:25:27.395Z,9.23
2018-03-21T20:27:55.685Z,8.20
2018-03-21T20:30:23.911Z,8.87
2018-03-21T20:32:51.417Z,10.97
2018-03-21T20:35:19.664Z,9.77
2018-03-21T20:37:47.143Z,9.10
2018-03-21T20:40:15.409Z,7.80
2018-03-21T20:42:43.656Z,8.53
2018-03-21T20:45:11.189Z,8.90
2018-03-21T20:47:38.665Z,8.57
2018-03-21T20:50:06.148Z,7.97
2018-03-21T20:52:34.395Z,8.27
2018-03-21T20:55:01.899Z,8.90
2018-03-21T20:57:29.372Z,8.57
2018-03-21T20:59:56.848Z,9.53
2018-03-21T21:02:24.348Z,9.30
2018-03-21T21:04:52.596Z,8.40
2018-03-21T21:07:20.088Z,9.23
2018-03-21T21:09:48.369Z,9.00
2018-03-21T21:12:16.642Z,8.90
2018-03-21T21:14:44.128Z,10.03
2018-03-21T21:17:11.605Z,9.93
2018-03-21T21:19:39.115Z,9.93
2018-03-21T21:22:06.594Z,9.33
2018-03-21T21:24:34.075Z,9.60
2018-03-21T21:27:01.569Z,9.53
2018-03-21T21:29:29.827Z,10.40
2018-03-21T21:31:57.435Z,11.13
2018-03-21T21:34:24.926Z,10.80
2018-03-21T21:36:53.986Z,10.67
2018-03-21T21:39:21.483Z,10.00
2018-03-21T21:41:48.971Z,10.97
2018-03-21T21:44:17.256Z,11.50
2018-03-21T21:46:44.736Z,11.13
2018-03-21T21:49:12.215Z,11.53
2018-03-21T21:51:39.716Z,11.70
2018-03-21T21:54:08.008Z,11.80
2018-03-21T21:56:35.512Z,13.13
2018-03-21T21:59:03.000Z,12.53
2018-03-21T22:01:31.247Z,12.40
2018-03-21T22:03:58.745Z,12.17
2018-03-21T22:06:26.230Z,12.93
2018-03-21T22:08:53.739Z,12.23
2018-03-21T22:11:21.994Z,12.03
2018-03-21T22:13:49.468Z,12.07
2018-03-21T22:16:17.756Z,13.50
2018-03-21T22:18:45.240Z,12.53
2018-03-21T22:21:12.759Z,12.67
2018-03-21T22:23:41.007Z,12.77
2018-03-21T22:26:08.488Z,12.63
2018-03-21T22:28:36.795Z,12.40
2018-03-21T22:31:04.280Z,13.43
2018-03-21T22:33:31.775Z,12.70
2018-03-21T22:36:00.015Z,12.53
2018-03-21T22:38:27.511Z,13.03
2018-03-21T22:40:55.780Z,13.10
2018-03-21T22:43:24.025Z,12.13
2018-03-21T22:45:51.540Z,11.80
2018-03-21T22:48:19.019Z,12.07
2018-03-21T22:50:46.495Z,12.60
2018-03-21T22:53:13.995Z,11.87
2018-03-21T22:55:41.471Z,12.23
2018-03-21T22:58:08.983Z,12.03
2018-03-21T23:00:36.466Z,12.30
2018-03-21T23:03:03.996Z,11.67
2018-03-21T23:05:32.260Z,12.40
2018-03-21T23:07:59.747Z,12.27
2018-03-21T23:10:28.008Z,12.23
2018-03-21T23:12:56.255Z,11.23
2018-03-21T23:15:23.749Z,11.90
2018-03-21T23:17:52.021Z,11.60
2018-03-21T23:20:20.276Z,12.27
2018-03-21T23:22:47.804Z,13.17
2018-03-21T23:25:15.845Z,12.17
2018-03-21T23:27:43.323Z,12.03
2018-03-21T23:30:10.819Z,12.47
2018-03-21T23:32:38.308Z,12.67
2018-03-21T23:35:05.783Z,13.03
2018-03-21T23:37:33.300Z,12.77
2018-03-21T23:40:01.549Z,19.57
2018-03-21T23:42:29.056Z,12.73
2018-03-21T23:44:56.585Z,14.07
2018-03-21T23:47:24.832Z,12.77
2018-03-21T23:49:52.336Z,14.43
2018-03-21T23:52:19.816Z,15.93
2018-03-21T23:54:47.469Z,14.40
2018-03-21T23:57:14.967Z,24.07
2018-03-21T23:59:42.485Z,15.40
